createdAt,value
2019-04-05T09:22:22.615Z,5.3677
2019-04-05T09:22:26.368Z,4.8444
2019-04-05T09:22:30.115Z,4.3210
2019-04-05T09:22:33.833Z,4.3904
2019-04-05T09:22:37.559Z,4.6601
2019-04-05T09:22:41.349Z,5.4799
2019-04-05T09:22:45.069Z,5.5226
2019-04-05T09:22:48.805Z,4.8844
2019-04-05T09:22:52.645Z,4.7028
2019-04-05T09:22:56.443Z,4.6601
2019-04-05T09:23:00.175Z,4.5052
2019-04-05T09:23:03.989Z,4.4492
2019-04-05T09:23:07.695Z,4.3904
2019-04-05T09:23:11.395Z,4.3637
2019-04-05T09:23:15.098Z,4.3343
2019-04-05T09:23:18.798Z,4.3076
2019-04-05T09:23:22.499Z,4.3076
2019-04-05T09:23:26.211Z,4.3637
2019-04-05T09:23:29.917Z,4.4064
2019-04-05T09:23:33.615Z,4.4625
2019-04-05T09:23:37.370Z,4.6040
2019-04-05T09:23:41.085Z,4.8283
2019-04-05T09:23:44.776Z,5.0286
2019-04-05T09:23:48.479Z,5.2689
2019-04-05T09:23:52.201Z,5.5360
2019-04-05T09:23:59.005Z,5.7923
2019-04-05T09:24:03.159Z,6.1742
2019-04-05T09:24:06.876Z,6.3718
2019-04-05T09:24:10.577Z,6.5267
2019-04-05T09:24:13.298Z,6.6014
2019-04-05T09:24:16.997Z,6.6281
2019-04-05T09:24:20.703Z,6.7430
2019-04-05T09:24:24.415Z,6.8978
2019-04-05T09:24:43.041Z,7.1809
2019-04-05T09:24:45.765Z,7.5361
2019-04-05T09:24:49.491Z,7.6482
2019-04-05T09:24:53.220Z,7.7604
2019-04-05T09:24:57.053Z,7.8458
2019-04-05T09:25:00.787Z,7.9446
2019-04-05T09:25:04.517Z,8.0434
2019-04-05T09:25:08.237Z,8.1422
2019-04-05T09:25:11.955Z,8.2731
2019-04-05T09:25:15.667Z,8.3986
2019-04-05T09:25:19.916Z,8.4413
2019-04-05T09:25:23.750Z,8.6522
2019-04-05T09:25:27.461Z,8.9220
2019-04-05T09:25:31.187Z,9.0234
2019-04-05T09:25:35.015Z,9.2210
2019-04-05T09:25:38.750Z,9.4186
2019-04-05T09:25:41.486Z,9.6002
2019-04-05T09:25:45.223Z,9.7311
2019-04-05T09:25:48.971Z,9.9153
2019-04-05T09:25:53.205Z,10.1263
2019-04-05T09:26:04.967Z,10.2384
2019-04-05T09:26:16.712Z,10.5241
2019-04-05T09:26:28.467Z,10.8900
2019-04-05T09:26:40.208Z,11.4588
2019-04-05T09:26:54.274Z,11.6991
2019-04-05T09:27:06.342Z,11.7418
2019-04-05T09:27:18.105Z,11.5015
2019-04-05T09:27:29.835Z,11.4855
2019-04-05T09:27:41.558Z,11.6831
2019-04-05T09:28:15.885Z,9.1356
2019-04-05T09:28:19.577Z,9.0928
